Time;durP1;ratioP1;P1;durP2;ratioP2;P2;SDS_P1;SDS_P2;PMS_P1;PMS_P2;Temp;Humidity;BMP_temperature;BMP_pressure;BME280_temperature;BME280_humidity;BME280_pressure;Samples;Min_cycle;Max_cycle;Signal;HPM_P1;HPM_P2
2023/12/04 00:00:17;;;;;;;21.63;20.33;;;0.50;99.90;;;;;;5089906;28;20972;-66
2023/12/04 00:02:44;;;;;;;21.50;20.20;;;0.50;99.90;;;;;;5083686;28;20885;-67
2023/12/04 00:05:10;;;;;;;21.50;20.20;;;0.50;99.90;;;;;;5081517;28;20464;-67
2023/12/04 00:07:37;;;;;;;21.80;20.50;;;0.50;99.90;;;;;;5078009;28;20875;-68
2023/12/04 00:10:05;;;;;;;22.00;20.70;;;0.50;99.90;;;;;;5073274;28;20463;-66
2023/12/04 00:12:34;;;;;;;21.67;20.37;;;0.50;99.90;;;;;;5087112;28;20509;-68
2023/12/04 00:15:01;;;;;;;22.03;20.70;;;0.50;99.90;;;;;;5080719;28;20467;-67
2023/12/04 00:17:28;;;;;;;22.20;20.90;;;0.40;99.90;;;;;;5088083;28;20459;-68
2023/12/04 00:19:55;;;;;;;22.10;20.80;;;0.40;99.90;;;;;;5079676;28;20870;-67
2023/12/04 00:22:23;;;;;;;21.50;20.20;;;0.40;99.90;;;;;;5078791;28;20464;-68
2023/12/04 00:24:51;;;;;;;22.57;21.17;;;0.40;99.90;;;;;;5084230;28;20577;-68
2023/12/04 00:27:19;;;;;;;22.10;20.70;;;0.50;99.90;;;;;;5070113;28;20490;-68
2023/12/04 00:29:47;;;;;;;22.60;21.20;;;0.40;99.90;;;;;;5087844;28;20456;-67
2023/12/04 00:32:15;;;;;;;22.57;21.17;;;0.50;99.90;;;;;;5099307;28;20481;-68
2023/12/04 00:34:41;;;;;;;22.30;20.97;;;0.50;99.90;;;;;;5086515;28;20478;-68
2023/12/04 00:37:08;;;;;;;22.47;21.07;;;0.50;99.90;;;;;;5074358;28;20492;-68
2023/12/04 00:39:35;;;;;;;22.80;21.40;;;0.50;99.90;;;;;;5083841;28;20454;-68
2023/12/04 00:42:02;;;;;;;22.57;21.17;;;0.50;99.90;;;;;;5088503;28;20469;-67
2023/12/04 00:44:29;;;;;;;22.80;21.40;;;0.60;99.90;;;;;;5072648;28;20463;-67
2023/12/04 00:46:57;;;;;;;22.63;21.23;;;0.60;99.90;;;;;;5085908;28;20466;-68
2023/12/04 00:49:24;;;;;;;22.80;21.40;;;0.60;99.90;;;;;;5085773;28;20980;-68
2023/12/04 00:51:51;;;;;;;23.10;21.70;;;0.60;99.90;;;;;;5077970;28;20489;-68
2023/12/04 00:54:19;;;;;;;22.90;21.50;;;0.60;99.90;;;;;;5077328;28;20527;-67
2023/12/04 00:56:46;;;;;;;22.73;21.33;;;0.60;99.90;;;;;;5078611;28;20515;-69
2023/12/04 00:59:13;;;;;;;22.70;21.30;;;0.60;99.90;;;;;;5087826;28;20482;-68
2023/12/04 01:01:40;;;;;;;22.47;21.07;;;0.60;99.90;;;;;;5091194;28;20458;-67
2023/12/04 01:04:09;;;;;;;22.80;21.40;;;0.50;99.90;;;;;;5081881;28;20477;-67
2023/12/04 01:06:37;;;;;;;22.33;20.93;;;0.50;99.90;;;;;;5088073;28;20526;-68
2023/12/04 01:09:04;;;;;;;22.90;21.50;;;0.50;99.90;;;;;;5077530;28;20530;-68
2023/12/04 01:11:30;;;;;;;22.90;21.50;;;0.60;99.90;;;;;;5084676;28;20457;-67
2023/12/04 01:13:58;;;;;;;22.60;21.20;;;0.60;99.90;;;;;;5077107;28;20493;-69
2023/12/04 01:16:25;;;;;;;22.27;20.87;;;0.60;99.90;;;;;;5075997;28;20837;-68
2023/12/04 01:18:52;;;;;;;22.67;21.27;;;0.60;99.90;;;;;;5077168;28;20463;-67
2023/12/04 01:21:20;;;;;;;22.47;21.07;;;0.70;99.90;;;;;;5088252;28;20465;-68
2023/12/04 01:23:47;;;;;;;23.00;21.60;;;0.60;99.90;;;;;;5077228;28;20482;-66
2023/12/04 01:26:14;;;;;;;22.73;21.33;;;0.70;99.90;;;;;;5086123;28;20459;-67
2023/12/04 01:28:41;;;;;;;22.70;21.30;;;0.70;99.90;;;;;;5088297;28;20541;-67
2023/12/04 01:31:08;;;;;;;22.87;21.47;;;0.70;99.90;;;;;;5089985;28;20454;-67
2023/12/04 01:33:35;;;;;;;23.20;21.80;;;0.70;99.90;;;;;;5094616;28;20493;-67
2023/12/04 01:36:02;;;;;;;23.20;21.80;;;0.80;99.90;;;;;;5073616;28;20466;-66
2023/12/04 01:38:30;;;;;;;23.00;21.60;;;0.70;99.90;;;;;;5084858;28;20946;-66
2023/12/04 01:40:57;;;;;;;23.50;22.10;;;0.70;99.90;;;;;;5078153;28;20483;-68
2023/12/04 01:43:24;;;;;;;24.00;22.50;;;0.70;99.90;;;;;;5083018;28;20458;-68
2023/12/04 01:45:53;;;;;;;23.97;22.47;;;0.70;99.90;;;;;;5080522;28;20463;-67
2023/12/04 01:48:21;;;;;;;23.70;22.20;;;0.70;99.90;;;;;;5087532;28;21168;-67
2023/12/04 01:50:49;;;;;;;23.40;22.00;;;0.80;99.90;;;;;;5078257;28;20462;-67
2023/12/04 01:53:17;;;;;;;22.90;21.50;;;0.70;99.90;;;;;;5076772;28;20584;-66
2023/12/04 01:55:46;;;;;;;22.77;21.37;;;0.60;99.90;;;;;;5079278;28;20468;-67
2023/12/04 01:58:13;;;;;;;22.70;21.30;;;0.60;99.90;;;;;;5084302;28;20450;-67
2023/12/04 02:00:40;;;;;;;22.10;20.80;;;0.70;99.90;;;;;;5092981;28;20449;-66
2023/12/04 02:03:08;;;;;;;23.27;21.87;;;0.60;99.90;;;;;;5095393;28;20473;-67
2023/12/04 02:05:37;;;;;;;23.20;21.80;;;0.60;99.90;;;;;;5083777;28;20462;-66
2023/12/04 02:08:05;;;;;;;23.00;21.60;;;0.70;99.90;;;;;;5078176;28;20458;-66
2023/12/04 02:10:32;;;;;;;22.63;21.23;;;0.60;99.90;;;;;;5091221;28;20458;-67
2023/12/04 02:13:00;;;;;;;23.10;21.70;;;0.60;99.90;;;;;;5080704;28;20501;-67
2023/12/04 02:15:28;;;;;;;23.40;22.00;;;0.60;99.90;;;;;;5084673;28;20494;-67
2023/12/04 02:17:56;;;;;;;23.33;21.90;;;0.60;99.90;;;;;;5084453;28;21102;-67
2023/12/04 02:20:32;;;;;;;22.57;21.17;;;0.60;99.90;;;;;;5083243;28;20469;-67
2023/12/04 02:22:59;;;;;;;22.80;21.40;;;0.60;99.90;;;;;;5090865;28;20565;-68
2023/12/04 02:25:28;;;;;;;22.93;21.53;;;0.50;99.90;;;;;;5073378;28;20483;-68
2023/12/04 02:27:56;;;;;;;22.70;21.30;;;0.60;99.90;;;;;;5090546;28;20462;-67
2023/12/04 02:30:25;;;;;;;22.80;21.40;;;0.50;99.90;;;;;;5089395;28;20461;-67
2023/12/04 02:32:54;;;;;;;22.97;21.57;;;0.50;99.90;;;;;;5082650;28;20485;-67
2023/12/04 02:35:24;;;;;;;22.47;21.17;;;0.50;99.90;;;;;;5080081;28;20471;-68
2023/12/04 02:37:52;;;;;;;22.57;21.27;;;0.60;99.90;;;;;;5085393;28;20551;-67
2023/12/04 02:40:19;;;;;;;22.73;21.33;;;0.50;99.90;;;;;;5086933;28;20454;-66
2023/12/04 02:42:47;;;;;;;21.83;20.53;;;0.60;99.90;;;;;;5079914;28;20477;-68
2023/12/04 02:45:14;;;;;;;22.23;20.93;;;0.50;99.90;;;;;;5087782;28;20451;-66
2023/12/04 02:47:42;;;;;;;22.50;21.20;;;0.50;99.90;;;;;;5071003;28;21044;-67
2023/12/04 02:50:09;;;;;;;22.20;20.90;;;0.50;99.90;;;;;;5086937;28;20527;-68
2023/12/04 02:52:36;;;;;;;22.70;21.40;;;0.50;99.90;;;;;;5083792;28;20574;-67
2023/12/04 02:55:04;;;;;;;22.33;21.03;;;0.60;99.90;;;;;;5088021;28;20459;-67
2023/12/04 02:57:31;;;;;;;21.80;20.60;;;0.60;99.90;;;;;;5084842;28;20551;-67
2023/12/04 02:59:59;;;;;;;21.80;20.60;;;0.50;99.90;;;;;;5077946;28;20459;-68
2023/12/04 03:02:26;;;;;;;21.50;20.30;;;0.40;99.90;;;;;;5087769;28;20467;-68
2023/12/04 03:04:53;;;;;;;21.90;20.70;;;0.40;99.90;;;;;;5078088;28;20551;-68
2023/12/04 03:07:21;;;;;;;22.13;20.93;;;0.40;99.90;;;;;;5091567;28;20458;-67
2023/12/04 03:09:48;;;;;;;22.20;21.00;;;0.40;99.90;;;;;;5085101;28;20559;-67
2023/12/04 03:12:15;;;;;;;21.80;20.60;;;0.40;99.90;;;;;;5090659;28;20851;-68
2023/12/04 03:14:42;;;;;;;21.40;20.30;;;0.50;99.90;;;;;;5078537;28;20583;-68
2023/12/04 03:17:10;;;;;;;21.60;20.40;;;0.50;99.90;;;;;;5075646;28;20464;-67
2023/12/04 03:19:36;;;;;;;21.70;20.50;;;0.40;99.90;;;;;;5084693;28;20933;-68
2023/12/04 03:22:04;;;;;;;20.90;19.80;;;0.40;99.90;;;;;;5090064;28;20468;-68
2023/12/04 03:24:31;;;;;;;21.30;20.20;;;0.30;99.90;;;;;;5089686;28;20856;-68
2023/12/04 03:26:58;;;;;;;21.50;20.40;;;0.40;99.90;;;;;;5086090;28;21079;-68
2023/12/04 03:29:25;;;;;;;20.70;19.60;;;0.40;99.90;;;;;;5072308;28;21034;-68
2023/12/04 03:31:52;;;;;;;21.30;20.20;;;0.40;99.90;;;;;;5088918;28;20462;-68
2023/12/04 03:34:20;;;;;;;20.67;19.63;;;0.40;99.90;;;;;;5085231;28;20481;-68
2023/12/04 03:36:47;;;;;;;21.10;20.00;;;0.50;99.90;;;;;;5070387;28;20977;-68
2023/12/04 03:39:15;;;;;;;20.27;19.27;;;0.40;99.90;;;;;;5088079;28;20830;-67
2023/12/04 03:41:41;;;;;;;20.43;19.43;;;0.40;99.90;;;;;;5079865;28;20465;-67
2023/12/04 03:44:08;;;;;;;21.13;20.03;;;0.40;99.90;;;;;;5089494;28;20497;-68
2023/12/04 03:46:35;;;;;;;20.40;19.40;;;0.40;99.90;;;;;;5077931;28;20810;-68
2023/12/04 03:49:03;;;;;;;20.40;19.40;;;0.40;99.90;;;;;;5079738;28;20535;-68
2023/12/04 03:51:32;;;;;;;20.57;19.57;;;0.40;99.90;;;;;;5088066;28;21113;-68
2023/12/04 03:53:59;;;;;;;19.70;18.80;;;0.40;99.90;;;;;;5075443;28;20482;-68
2023/12/04 03:56:26;;;;;;;19.60;18.70;;;0.40;99.90;;;;;;5083567;28;20451;-67
2023/12/04 03:58:53;;;;;;;19.47;18.57;;;0.30;99.90;;;;;;5083837;28;20459;-67
2023/12/04 04:01:20;;;;;;;19.50;18.60;;;0.30;99.90;;;;;;5090611;28;20455;-67
2023/12/04 04:03:47;;;;;;;19.03;18.13;;;0.30;99.90;;;;;;5086261;28;20463;-68
2023/12/04 04:06:14;;;;;;;19.33;18.43;;;0.30;99.90;;;;;;5077184;28;20466;-67
2023/12/04 04:08:42;;;;;;;19.40;18.50;;;0.40;99.90;;;;;;5087221;28;20926;-68
2023/12/04 04:11:09;;;;;;;19.60;18.70;;;0.40;99.90;;;;;;5081496;28;20463;-68
2023/12/04 04:13:36;;;;;;;19.60;18.70;;;0.30;99.90;;;;;;5081287;28;20605;-68
2023/12/04 04:16:04;;;;;;;20.00;19.10;;;0.30;99.90;;;;;;5083249;28;20455;-67
2023/12/04 04:18:31;;;;;;;19.33;18.43;;;0.40;99.90;;;;;;5081020;28;20463;-67
2023/12/04 04:20:59;;;;;;;19.30;18.40;;;0.40;99.90;;;;;;5082854;28;20849;-67
2023/12/04 04:23:26;;;;;;;19.13;18.23;;;0.40;99.90;;;;;;5080630;28;20491;-67
2023/12/04 04:25:54;;;;;;;19.00;18.10;;;0.30;99.90;;;;;;5084224;28;20478;-68
2023/12/04 04:28:21;;;;;;;19.80;18.90;;;0.30;99.90;;;;;;5090173;28;20822;-68
2023/12/04 04:30:48;;;;;;;19.70;18.80;;;0.40;99.90;;;;;;5086676;28;20545;-67
2023/12/04 04:33:17;;;;;;;19.50;18.60;;;0.40;99.90;;;;;;5078538;28;20981;-68
2023/12/04 04:35:43;;;;;;;18.23;17.43;;;0.30;99.90;;;;;;5085988;28;21001;-68
2023/12/04 04:38:10;;;;;;;19.20;18.30;;;0.30;99.90;;;;;;5084597;28;20450;-68
2023/12/04 04:40:41;;;;;;;19.00;18.20;;;0.30;99.90;;;;;;5083750;28;20821;-67
2023/12/04 04:43:10;;;;;;;18.80;18.00;;;0.30;99.90;;;;;;5076423;28;20462;-67
2023/12/04 04:45:39;;;;;;;19.37;18.47;;;0.30;99.90;;;;;;5082764;28;20454;-68
2023/12/04 04:48:06;;;;;;;18.93;18.13;;;0.30;99.90;;;;;;5090741;28;20494;-68
2023/12/04 04:50:33;;;;;;;19.00;18.20;;;0.40;99.90;;;;;;5073840;28;20462;-67
2023/12/04 04:53:00;;;;;;;18.83;18.03;;;0.30;99.90;;;;;;5073393;28;20966;-67
2023/12/04 04:55:28;;;;;;;19.00;18.10;;;0.30;99.90;;;;;;5088598;28;20481;-68
2023/12/04 04:57:55;;;;;;;18.60;17.80;;;0.30;99.90;;;;;;5079918;28;20463;-67
2023/12/04 05:00:23;;;;;;;19.10;18.20;;;0.20;99.90;;;;;;5079993;28;20528;-67
2023/12/04 05:02:50;;;;;;;19.30;18.40;;;0.20;99.90;;;;;;5071988;28;20459;-67
2023/12/04 05:05:17;;;;;;;19.07;18.17;;;0.20;99.90;;;;;;5078566;28;20458;-68
2023/12/04 05:07:44;;;;;;;19.33;18.43;;;0.20;99.90;;;;;;5076999;28;20965;-67
2023/12/04 05:10:11;;;;;;;19.30;18.40;;;0.20;99.90;;;;;;5072813;28;20478;-68
2023/12/04 05:12:38;;;;;;;19.30;18.40;;;0.30;99.90;;;;;;5069088;28;20455;-68
2023/12/04 05:15:06;;;;;;;19.23;18.33;;;0.20;99.90;;;;;;5072148;28;20494;-68
2023/12/04 05:17:34;;;;;;;19.60;18.70;;;0.20;99.90;;;;;;5084995;28;20464;-68
2023/12/04 05:20:01;;;;;;;19.57;18.67;;;0.20;99.90;;;;;;5085926;28;20453;-68
2023/12/04 05:22:28;;;;;;;19.33;18.43;;;0.20;99.90;;;;;;5080384;28;20458;-68
2023/12/04 05:24:55;;;;;;;19.50;18.60;;;0.20;99.90;;;;;;5078176;28;20482;-68
2023/12/04 05:27:23;;;;;;;19.20;18.30;;;0.20;99.90;;;;;;5079235;28;20702;-68
2023/12/04 05:29:51;;;;;;;19.40;18.50;;;0.10;99.90;;;;;;5071062;28;20466;-68
2023/12/04 05:32:17;;;;;;;19.10;18.20;;;0.10;99.90;;;;;;5075553;28;20838;-68
2023/12/04 05:34:46;;;;;;;19.60;18.60;;;0.10;99.90;;;;;;5084766;28;20552;-68
2023/12/04 05:37:13;;;;;;;18.80;17.90;;;0.10;99.90;;;;;;5086764;28;20458;-68
2023/12/04 05:39:40;;;;;;;19.50;18.60;;;0.20;99.90;;;;;;5081999;28;20989;-68
2023/12/04 05:42:07;;;;;;;19.87;18.90;;;0.20;99.90;;;;;;5081857;28;20961;-68
2023/12/04 05:44:34;;;;;;;19.33;18.43;;;0.20;99.90;;;;;;5086969;28;20461;-68
2023/12/04 05:47:01;;;;;;;20.20;19.20;;;0.20;99.90;;;;;;5099914;28;20466;-68
2023/12/04 05:49:29;;;;;;;19.80;18.90;;;0.30;99.90;;;;;;5079566;28;20973;-68
2023/12/04 05:51:57;;;;;;;19.63;18.73;;;0.30;99.90;;;;;;5086630;28;20455;-68
2023/12/04 05:54:24;;;;;;;19.47;18.57;;;0.30;99.90;;;;;;5078142;28;20506;-68
2023/12/04 05:56:50;;;;;;;19.60;18.70;;;0.30;99.90;;;;;;5084456;28;20450;-68
2023/12/04 05:59:17;;;;;;;19.03;18.13;;;0.30;99.90;;;;;;5076424;28;20948;-68
2023/12/04 06:01:44;;;;;;;19.20;18.30;;;0.30;99.90;;;;;;5087498;28;20450;-68
2023/12/04 06:04:11;;;;;;;19.50;18.60;;;0.30;99.90;;;;;;5078203;28;20466;-68
2023/12/04 06:06:38;;;;;;;19.50;18.60;;;0.30;99.90;;;;;;5083478;28;20458;-68
2023/12/04 06:09:06;;;;;;;19.00;18.10;;;0.40;99.90;;;;;;5080750;28;20456;-68
2023/12/04 06:11:33;;;;;;;19.30;18.40;;;0.40;99.90;;;;;;5077044;28;20805;-68
2023/12/04 06:14:00;;;;;;;19.23;18.33;;;0.40;99.90;;;;;;5077659;28;20935;-68
2023/12/04 06:16:27;;;;;;;19.57;18.67;;;0.40;99.90;;;;;;5098570;28;20453;-68
2023/12/04 06:18:54;;;;;;;19.50;18.60;;;0.40;99.90;;;;;;5086693;28;20467;-68
2023/12/04 06:21:21;;;;;;;19.70;18.80;;;0.50;99.90;;;;;;5079768;28;20466;-68
2023/12/04 06:23:48;;;;;;;19.33;18.43;;;0.50;99.90;;;;;;5085258;28;20480;-68
2023/12/04 06:26:18;;;;;;;19.50;18.60;;;0.60;99.90;;;;;;5088718;28;20460;-68
2023/12/04 06:28:46;;;;;;;19.50;18.60;;;0.50;99.90;;;;;;5089320;28;20450;-68
2023/12/04 06:31:14;;;;;;;19.60;18.70;;;0.50;99.90;;;;;;5080724;28;20466;-68
2023/12/04 06:33:41;;;;;;;19.20;18.30;;;0.50;99.90;;;;;;5085288;28;20489;-68
2023/12/04 06:36:09;;;;;;;18.93;18.03;;;0.50;99.90;;;;;;5078841;28;20808;-68
2023/12/04 06:38:41;;;;;;;19.67;18.77;;;0.50;99.90;;;;;;5084352;28;20447;-68
2023/12/04 06:41:09;;;;;;;19.60;18.70;;;0.60;99.90;;;;;;5090526;28;20458;-68
2023/12/04 06:43:38;;;;;;;19.63;18.73;;;0.60;99.90;;;;;;5079021;28;20460;-68
2023/12/04 06:46:07;;;;;;;19.50;18.60;;;0.60;99.90;;;;;;5082128;28;20969;-68
2023/12/04 06:48:34;;;;;;;19.40;18.50;;;0.70;99.90;;;;;;5071350;28;20471;-68
2023/12/04 06:51:01;;;;;;;19.20;18.30;;;0.70;99.90;;;;;;5086839;28;20450;-68
2023/12/04 06:53:28;;;;;;;19.53;18.63;;;0.60;99.90;;;;;;5083619;28;20557;-68
2023/12/04 06:55:55;;;;;;;19.37;18.47;;;0.60;99.90;;;;;;5081495;28;21023;-68
2023/12/04 06:58:23;;;;;;;19.10;18.20;;;0.60;99.90;;;;;;5077535;28;20881;-68
2023/12/04 07:00:53;;;;;;;19.50;18.60;;;0.50;99.90;;;;;;5078385;28;21067;-68
2023/12/04 07:03:20;;;;;;;19.30;18.40;;;0.50;99.90;;;;;;5072270;28;20474;-68
2023/12/04 07:05:47;;;;;;;19.70;18.80;;;0.50;99.90;;;;;;5076714;28;20515;-68
2023/12/04 07:08:14;;;;;;;19.90;18.90;;;0.50;99.90;;;;;;5089770;28;20503;-68
2023/12/04 07:10:40;;;;;;;19.47;18.57;;;0.50;99.90;;;;;;5079861;28;20473;-67
2023/12/04 07:13:07;;;;;;;19.17;18.27;;;0.40;99.90;;;;;;5076642;28;20976;-68
2023/12/04 07:15:34;;;;;;;19.27;18.37;;;0.40;99.90;;;;;;5086516;28;20798;-68
2023/12/04 07:18:03;;;;;;;19.70;18.70;;;0.40;99.90;;;;;;5084348;28;20470;-68
2023/12/04 07:20:30;;;;;;;19.40;18.50;;;0.50;99.90;;;;;;5081478;28;20640;-68
2023/12/04 07:22:58;;;;;;;19.20;18.30;;;0.40;99.90;;;;;;5081665;28;20500;-68
2023/12/04 07:25:25;;;;;;;19.37;18.47;;;0.50;99.90;;;;;;5079573;28;20490;-68
2023/12/04 07:27:51;;;;;;;19.30;18.40;;;0.50;99.90;;;;;;5083166;28;20459;-68
2023/12/04 07:30:20;;;;;;;19.40;18.50;;;0.50;99.90;;;;;;5074385;28;20866;-68
2023/12/04 07:32:47;;;;;;;19.40;18.50;;;0.40;99.90;;;;;;5082847;28;20519;-68
2023/12/04 07:35:17;;;;;;;19.07;18.17;;;0.40;99.90;;;;;;5076045;28;20487;-68
2023/12/04 07:37:44;;;;;;;19.47;18.57;;;0.50;99.90;;;;;;5075526;28;21272;-68
2023/12/04 07:40:12;;;;;;;18.80;17.90;;;0.40;99.90;;;;;;5076000;28;20591;-69
2023/12/04 07:42:39;;;;;;;18.60;17.70;;;0.50;99.90;;;;;;5084080;28;20454;-68
2023/12/04 07:45:07;;;;;;;19.07;18.17;;;0.40;99.90;;;;;;5077330;28;20495;-68
2023/12/04 07:47:34;;;;;;;18.73;17.83;;;0.40;99.90;;;;;;5080953;28;20454;-68
2023/12/04 07:50:01;;;;;;;18.57;17.67;;;0.30;99.90;;;;;;5082658;28;20470;-68
2023/12/04 07:52:30;;;;;;;19.10;18.20;;;0.30;99.90;;;;;;5088708;28;20495;-68
2023/12/04 07:54:57;;;;;;;18.80;17.90;;;0.30;99.90;;;;;;5081101;28;20494;-68
2023/12/04 07:57:24;;;;;;;18.50;17.60;;;0.40;99.90;;;;;;5073091;28;20830;-68
2023/12/04 07:59:51;;;;;;;18.63;17.73;;;0.40;99.90;;;;;;5079755;28;20451;-66
2023/12/04 08:02:18;;;;;;;18.50;17.60;;;0.40;99.90;;;;;;5088838;28;20454;-66
2023/12/04 08:04:45;;;;;;;18.33;17.43;;;0.40;99.90;;;;;;5075621;28;20838;-68
2023/12/04 08:07:12;;;;;;;18.50;17.60;;;0.40;99.90;;;;;;5076723;28;20463;-68
2023/12/04 08:09:41;;;;;;;18.60;17.70;;;0.30;99.90;;;;;;5081457;28;20554;-68
2023/12/04 08:12:08;;;;;;;18.77;17.87;;;0.40;99.90;;;;;;5088525;28;20941;-68
2023/12/04 08:14:35;;;;;;;18.20;17.40;;;0.40;99.90;;;;;;5074784;28;20537;-67
2023/12/04 08:17:02;;;;;;;19.10;18.20;;;0.40;99.90;;;;;;5094931;28;20894;-68
2023/12/04 08:19:29;;;;;;;18.40;17.60;;;0.40;99.90;;;;;;5080259;28;20485;-68
2023/12/04 08:21:56;;;;;;;18.67;17.77;;;0.50;99.90;;;;;;5084564;28;20474;-68
2023/12/04 08:24:23;;;;;;;18.40;17.53;;;0.50;99.90;;;;;;5084672;28;20486;-68
2023/12/04 08:26:51;;;;;;;18.70;17.87;;;0.50;99.90;;;;;;5078078;28;21017;-68
2023/12/04 08:29:18;;;;;;;18.93;18.03;;;0.50;99.90;;;;;;5083947;28;20473;-67
2023/12/04 08:31:45;;;;;;;18.87;17.97;;;0.60;99.90;;;;;;5072417;28;20903;-68
2023/12/04 08:34:12;;;;;;;19.20;18.30;;;0.60;99.90;;;;;;5079509;28;20469;-68
2023/12/04 08:36:39;;;;;;;19.30;18.40;;;0.60;99.90;;;;;;5071925;28;20464;-68
2023/12/04 08:39:06;;;;;;;19.00;18.10;;;0.60;99.90;;;;;;5080587;28;20451;-67
2023/12/04 08:41:33;;;;;;;19.10;18.20;;;0.70;99.90;;;;;;5072364;28;21003;-68
2023/12/04 08:44:02;;;;;;;19.40;18.50;;;0.70;99.90;;;;;;5084297;28;20462;-68
2023/12/04 08:46:29;;;;;;;19.47;18.47;;;0.70;99.90;;;;;;5082572;28;20463;-68
2023/12/04 08:48:56;;;;;;;19.90;18.90;;;0.80;99.90;;;;;;5077462;28;20483;-68
2023/12/04 08:51:24;;;;;;;20.10;19.00;;;0.80;99.90;;;;;;5075842;28;20458;-66
2023/12/04 08:53:51;;;;;;;20.03;18.93;;;0.80;99.90;;;;;;5083924;28;20455;-68
2023/12/04 08:56:18;;;;;;;20.10;19.00;;;0.80;99.90;;;;;;5076766;28;20494;-68
2023/12/04 08:58:45;;;;;;;20.07;18.97;;;0.80;99.90;;;;;;5076315;28;20489;-68
2023/12/04 09:01:13;;;;;;;20.60;19.50;;;0.90;99.90;;;;;;5080450;28;20489;-68
2023/12/04 09:03:40;;;;;;;20.60;19.40;;;0.90;99.90;;;;;;5090388;28;20911;-68
2023/12/04 09:06:07;;;;;;;20.90;19.70;;;0.90;99.90;;;;;;5076586;28;21017;-68
2023/12/04 09:08:35;;;;;;;20.23;19.13;;;0.80;99.90;;;;;;5079031;28;20470;-68
2023/12/04 09:11:03;;;;;;;20.83;19.63;;;0.90;99.90;;;;;;5077839;28;20460;-68
2023/12/04 09:13:31;;;;;;;21.10;19.90;;;0.90;99.90;;;;;;5085817;28;20465;-68
2023/12/04 09:15:58;;;;;;;21.20;20.00;;;0.90;99.90;;;;;;5090555;28;20474;-68
2023/12/04 09:18:26;;;;;;;20.90;19.70;;;1.00;99.90;;;;;;5097184;28;20468;-68
2023/12/04 09:20:54;;;;;;;20.93;19.73;;;1.00;99.90;;;;;;5090160;28;20489;-67
2023/12/04 09:23:21;;;;;;;21.30;20.00;;;1.00;99.90;;;;;;5077974;28;20934;-68
2023/12/04 09:25:48;;;;;;;21.47;20.17;;;0.90;99.90;;;;;;5074630;28;20875;-68
2023/12/04 09:28:15;;;;;;;21.67;20.37;;;1.00;99.90;;;;;;5089064;28;20473;-67
2023/12/04 09:30:42;;;;;;;21.17;19.90;;;0.90;99.90;;;;;;5090934;28;20447;-68
2023/12/04 09:33:09;;;;;;;21.90;20.60;;;0.90;99.90;;;;;;5090485;28;20529;-68
2023/12/04 09:35:38;;;;;;;21.70;20.40;;;0.90;99.90;;;;;;5088088;28;20887;-68
2023/12/04 09:38:05;;;;;;;21.43;20.13;;;0.90;99.90;;;;;;5075486;28;20498;-68
2023/12/04 09:40:32;;;;;;;21.10;19.90;;;0.90;99.90;;;;;;5087138;28;21007;-67
2023/12/04 09:42:59;;;;;;;22.27;20.87;;;0.90;99.90;;;;;;5075992;28;20474;-68
2023/12/04 09:45:27;;;;;;;22.13;20.73;;;1.00;99.90;;;;;;5080265;28;20465;-68
2023/12/04 09:47:55;;;;;;;22.50;21.10;;;0.90;99.90;;;;;;5091667;28;21054;-68
2023/12/04 09:50:23;;;;;;;23.17;21.67;;;1.00;99.90;;;;;;5084005;28;20834;-68
2023/12/04 09:52:52;;;;;;;23.47;21.90;;;1.00;99.90;;;;;;5078377;28;20692;-67
2023/12/04 09:55:20;;;;;;;23.77;22.27;;;1.00;99.90;;;;;;5091004;28;20482;-68
2023/12/04 09:57:48;;;;;;;24.10;22.50;;;1.00;99.90;;;;;;5091854;28;20466;-68
2023/12/04 10:00:16;;;;;;;23.67;22.13;;;1.00;99.90;;;;;;5087406;28;20503;-68
2023/12/04 10:02:43;;;;;;;23.73;22.23;;;1.00;99.90;;;;;;5085401;28;20466;-68
2023/12/04 10:05:11;;;;;;;23.37;21.87;;;1.00;99.90;;;;;;5091390;28;20458;-68
2023/12/04 10:07:38;;;;;;;24.43;22.83;;;1.00;99.90;;;;;;5084774;28;20462;-69
2023/12/04 10:10:08;;;;;;;25.30;23.60;;;1.00;99.90;;;;;;5095266;28;20953;-68
2023/12/04 10:12:36;;;;;;;24.57;22.97;;;1.00;99.90;;;;;;5083380;28;20482;-68
2023/12/04 10:15:07;;;;;;;24.63;23.03;;;1.10;99.90;;;;;;5090741;28;20482;-67
2023/12/04 10:17:37;;;;;;;24.93;23.33;;;1.10;99.90;;;;;;5076985;28;20521;-68
2023/12/04 10:20:11;;;;;;;25.73;24.03;;;1.10;99.90;;;;;;5095309;28;20451;-68
2023/12/04 10:22:40;;;;;;;24.70;23.10;;;1.10;99.90;;;;;;5084861;28;20944;-68
2023/12/04 10:25:19;;;;;;;25.03;23.43;;;1.10;99.90;;;;;;5077251;28;20565;-68
2023/12/04 10:27:47;;;;;;;24.47;22.87;;;1.10;99.90;;;;;;5058284;28;20698;-68
2023/12/04 10:30:24;;;;;;;25.10;23.50;;;1.20;99.90;;;;;;5069724;28;20556;-68
2023/12/04 10:32:55;;;;;;;24.53;22.93;;;1.20;99.90;;;;;;5073246;28;20554;-68
2023/12/04 10:35:23;;;;;;;24.60;23.00;;;1.20;99.90;;;;;;5058170;28;20498;-68
2023/12/04 10:37:53;;;;;;;24.47;22.87;;;1.10;99.90;;;;;;5055360;28;20579;-68
2023/12/04 10:40:25;;;;;;;24.13;22.53;;;1.20;99.90;;;;;;5082557;28;20454;-68
2023/12/04 10:42:53;;;;;;;23.97;22.37;;;1.20;99.90;;;;;;5057361;28;20483;-67
2023/12/04 10:45:22;;;;;;;24.10;22.50;;;1.20;99.90;;;;;;5066193;28;20542;-68
2023/12/04 10:47:51;;;;;;;24.43;22.83;;;1.20;99.90;;;;;;5059588;28;20472;-68
2023/12/04 10:50:19;;;;;;;24.47;22.87;;;1.20;99.90;;;;;;5066563;28;20870;-69
2023/12/04 10:52:47;;;;;;;24.80;23.10;;;1.30;99.90;;;;;;5063574;28;20554;-69
2023/12/04 10:55:13;;;;;;;23.57;21.97;;;1.30;99.90;;;;;;5070163;28;20486;-68
2023/12/04 10:57:43;;;;;;;24.20;22.60;;;1.30;99.90;;;;;;5064428;28;20494;-68
2023/12/04 11:00:11;;;;;;;25.40;23.70;;;1.30;99.90;;;;;;5074427;28;20775;-69
2023/12/04 11:02:46;;;;;;;27.43;25.43;;;1.40;99.90;;;;;;5057044;28;20461;-69
2023/12/04 11:05:17;;;;;;;27.10;25.10;;;1.50;99.90;;;;;;5068707;28;20528;-69
2023/12/04 11:07:49;;;;;;;26.57;24.60;;;1.40;99.90;;;;;;5058646;28;20824;-69
2023/12/04 11:10:17;;;;;;;26.17;24.27;;;1.50;99.90;;;;;;5074138;28;20490;-69
2023/12/04 11:12:49;;;;;;;25.90;24.00;;;1.60;99.90;;;;;;5060972;28;20462;-69
2023/12/04 11:15:20;;;;;;;25.13;23.33;;;1.60;99.90;;;;;;5061321;28;20483;-69
2023/12/04 11:17:52;;;;;;;26.10;24.20;;;1.60;99.90;;;;;;5070156;28;20470;-69
2023/12/04 11:20:21;;;;;;;25.23;23.43;;;1.50;99.90;;;;;;5071901;28;20451;-68
2023/12/04 11:22:50;;;;;;;25.03;23.23;;;1.50;99.90;;;;;;5060270;28;20483;-68
2023/12/04 11:25:18;;;;;;;24.83;23.03;;;1.40;99.90;;;;;;5065072;28;20578;-68
2023/12/04 11:27:47;;;;;;;24.30;22.60;;;1.40;99.90;;;;;;5086539;28;21200;-68
2023/12/04 11:30:15;;;;;;;23.87;22.17;;;1.30;99.90;;;;;;5096491;28;20989;-69
2023/12/04 11:32:46;;;;;;;23.40;21.80;;;1.30;99.90;;;;;;5078400;28;20519;-69
2023/12/04 11:35:17;;;;;;;22.77;21.17;;;1.40;99.90;;;;;;5088913;28;20847;-68
2023/12/04 11:37:45;;;;;;;22.40;20.90;;;1.30;99.90;;;;;;5075838;28;21057;-69
2023/12/04 11:40:14;;;;;;;21.50;20.10;;;1.40;99.90;;;;;;5073886;28;21005;-69
2023/12/04 11:42:40;;;;;;;22.00;20.50;;;1.30;99.90;;;;;;5079103;28;20458;-69
2023/12/04 11:45:10;;;;;;;22.00;20.50;;;1.30;99.90;;;;;;5090351;28;20458;-69
2023/12/04 11:47:50;;;;;;;20.93;19.53;;;1.40;99.90;;;;;;5079774;28;20876;-68
2023/12/04 11:50:18;;;;;;;21.27;19.87;;;1.50;99.90;;;;;;5082612;28;20541;-69
2023/12/04 11:52:44;;;;;;;20.30;19.00;;;1.50;99.90;;;;;;5073133;28;20785;-68
2023/12/04 11:55:11;;;;;;;20.20;18.90;;;1.50;99.90;;;;;;5074143;28;20560;-68
2023/12/04 11:57:40;;;;;;;20.20;18.90;;;1.60;99.90;;;;;;5080378;28;20468;-68
2023/12/04 12:00:14;;;;;;;19.53;18.33;;;1.50;99.90;;;;;;5086568;28;20458;-68
2023/12/04 12:02:42;;;;;;;19.70;18.50;;;1.70;99.90;;;;;;5078268;28;20490;-68
2023/12/04 12:05:09;;;;;;;19.60;18.40;;;1.60;99.90;;;;;;5095778;28;20457;-68
2023/12/04 12:07:36;;;;;;;19.27;18.07;;;1.60;99.90;;;;;;5087932;28;20475;-68
2023/12/04 12:10:03;;;;;;;19.63;18.43;;;1.60;99.90;;;;;;5084838;28;20462;-68
2023/12/04 12:12:33;;;;;;;18.57;17.47;;;1.60;99.90;;;;;;5080125;28;20842;-68
2023/12/04 12:15:00;;;;;;;19.40;18.20;;;1.50;99.90;;;;;;5074112;28;20456;-68
2023/12/04 12:17:28;;;;;;;18.63;17.53;;;1.60;99.90;;;;;;5086955;28;20490;-69
2023/12/04 12:19:57;;;;;;;18.80;17.70;;;1.50;99.90;;;;;;5083853;28;20473;-69
2023/12/04 12:22:24;;;;;;;18.80;17.70;;;1.60;99.90;;;;;;5081491;28;21004;-68
2023/12/04 12:24:51;;;;;;;18.40;17.30;;;1.60;99.90;;;;;;5076892;28;20501;-68
2023/12/04 12:27:19;;;;;;;18.27;17.27;;;1.50;99.90;;;;;;5087570;28;20462;-68
2023/12/04 12:29:47;;;;;;;17.70;16.70;;;1.40;99.90;;;;;;5081424;28;20462;-68
2023/12/04 12:32:14;;;;;;;17.70;16.70;;;1.40;99.90;;;;;;5082633;28;20466;-68
2023/12/04 12:34:43;;;;;;;17.40;16.50;;;1.30;99.90;;;;;;5078104;28;20970;-68
2023/12/04 12:37:10;;;;;;;17.83;16.83;;;1.20;99.90;;;;;;5075775;28;20516;-68